Terminal Aerodrome Forecast
Issued by NWS

Home | Current Version | Previous Version | Text Only | Print | Product List | Glossary Off
Versions: 1 2 3 4 5 6 7 8 9 10 11 12 13 14 15 16 17 18 19 20 21 22

000
FTUS43 KGRB 182051 AAA
TAFATW
TAF AMD
KATW 182051Z 1821/1918 34010G16KT P6SM OVC020
     FM190100 32012KT P6SM BKN025
     FM190400 31011KT P6SM BKN035
     FM191000 30011KT P6SM SCT035 BKN200
     FM191500 30012KT P6SM SCT040 BKN200=

USA.gov is the U.S. government's official web portal to all federal, state and local government web resources and services.